Time;durP1;ratioP1;P1;durP2;ratioP2;P2;SDS_P1;SDS_P2;PMS_P1;PMS_P2;Temp;Humidity;BMP_temperature;BMP_pressure;BME280_temperature;BME280_humidity;BME280_pressure;Samples;Min_cycle;Max_cycle;Signal;HPM_P1;HPM_P2
2023/08/26 00:00:59;;;;;;;;;;;;;;;;;;6346788;28;20184;-78
2023/08/26 00:04:01;;;;;;;;;;;;;;;;;;6344184;28;20239;-78
2023/08/26 00:07:02;;;;;;;;;;;;;;;;;;6344370;27;19960;-77
2023/08/26 00:10:03;;;;;;;;;;;;;;;;;;6348042;28;19954;-78
2023/08/26 00:13:05;;;;;;;;;;;;;;;;;;6342427;28;19928;-76
2023/08/26 00:16:06;;;;;;;;;;;;;;;;;;6343276;28;19939;-77
2023/08/26 00:19:07;;;;;;;;;;;;;;;;;;6343622;28;19920;-78
2023/08/26 00:22:08;;;;;;;;;;;;;;;;;;6345784;28;20108;-75
2023/08/26 00:25:10;;;;;;;;;;;;;;;;;;6346375;28;20196;-77
2023/08/26 00:28:11;;;;;;;;;;;;;;;;;;6343201;28;20208;-77
2023/08/26 00:31:13;;;;;;;;;;;;;;;;;;6346290;28;19920;-77
2023/08/26 00:34:14;;;;;;;;;;;;;;;;;;6345114;28;19932;-77
2023/08/26 00:37:15;;;;;;;;;;;;;;;;;;6342603;28;19928;-77
2023/08/26 00:40:16;;;;;;;;;;;;;;;;;;6341054;28;19927;-78
2023/08/26 00:43:17;;;;;;;;;;;;;;;;;;6344457;28;19972;-77
2023/08/26 00:46:20;;;;;;;;;;;;;;;;;;6343896;28;19965;-77
2023/08/26 00:49:21;;;;;;;;;;;;;;;;;;6342439;28;19932;-77
2023/08/26 00:52:22;;;;;;;;;;;;;;;;;;6343075;28;19923;-78
2023/08/26 00:55:24;;;;;;;;;;;;;;;;;;6345805;28;19928;-77
2023/08/26 00:58:25;;;;;;;;;;;;;;;;;;6349016;28;19920;-77
2023/08/26 01:01:26;;;;;;;;;;;;;;;;;;6342513;28;19959;-77
2023/08/26 01:04:27;;;;;;;;;;;;;;;;;;6343984;28;20219;-76
2023/08/26 01:07:29;;;;;;;;;;;;;;;;;;6343749;28;19927;-77
2023/08/26 01:10:30;;;;;;;;;;;;;;;;;;6347576;28;20181;-78
2023/08/26 01:13:31;;;;;;;;;;;;;;;;;;6342836;28;20196;-77
2023/08/26 01:16:32;;;;;;;;;;;;;;;;;;6347417;28;19928;-78
2023/08/26 01:19:34;;;;;;;;;;;;;;;;;;6344529;28;19927;-77
2023/08/26 01:22:35;;;;;;;;;;;;;;;;;;6343471;28;20127;-78
2023/08/26 01:25:36;;;;;;;;;;;;;;;;;;6344284;28;20108;-78
2023/08/26 01:28:37;;;;;;;;;;;;;;;;;;6344540;28;19919;-78
2023/08/26 01:31:39;;;;;;;;;;;;;;;;;;6341230;28;19973;-78
2023/08/26 01:34:40;;;;;;;;;;;;;;;;;;6341238;28;19934;-78
2023/08/26 01:37:41;;;;;;;;;;;;;;;;;;6350164;28;20201;-78
2023/08/26 01:40:42;;;;;;;;;;;;;;;;;;6346726;28;19986;-76
2023/08/26 01:43:44;;;;;;;;;;;;;;;;;;6340626;28;19928;-77
2023/08/26 01:46:45;;;;;;;;;;;;;;;;;;6346320;28;19920;-77
2023/08/26 01:49:46;;;;;;;;;;;;;;;;;;6347453;28;19928;-76
2023/08/26 01:52:47;;;;;;;;;;;;;;;;;;6348689;28;20202;-77
2023/08/26 01:55:49;;;;;;;;;;;;;;;;;;6346883;28;19928;-77
2023/08/26 01:58:50;;;;;;;;;;;;;;;;;;6350485;28;20127;-77
2023/08/26 02:01:52;;;;;;;;;;;;;;;;;;6351142;28;20124;-76
2023/08/26 02:04:53;;;;;;;;;;;;;;;;;;6348759;28;19920;-77
2023/08/26 02:07:54;;;;;;;;;;;;;;;;;;6348730;28;20124;-76
2023/08/26 02:10:55;;;;;;;;;;;;;;;;;;6349962;28;20004;-77
2023/08/26 02:13:57;;;;;;;;;;;;;;;;;;6347764;28;19928;-77
2023/08/26 02:16:58;;;;;;;;;;;;;;;;;;6353881;28;19927;-77
2023/08/26 02:19:59;;;;;;;;;;;;;;;;;;6353397;28;19972;-77
2023/08/26 02:23:02;;;;;;;;;;;;;;;;;;6356995;28;19928;-77
2023/08/26 02:26:03;;;;;;;;;;;;;;;;;;6353552;28;19977;-77
2023/08/26 02:29:04;;;;;;;;;;;;;;;;;;6358393;28;20172;-76
2023/08/26 02:32:05;;;;;;;;;;;;;;;;;;6354391;28;19965;-78
2023/08/26 02:35:06;;;;;;;;;;;;;;;;;;6354394;28;19972;-78
2023/08/26 02:38:08;;;;;;;;;;;;;;;;;;6356280;28;19919;-77
2023/08/26 02:41:09;;;;;;;;;;;;;;;;;;6356410;28;19935;-78
2023/08/26 02:44:10;;;;;;;;;;;;;;;;;;6356510;28;20180;-77
2023/08/26 02:47:11;;;;;;;;;;;;;;;;;;6359337;28;19965;-77
2023/08/26 02:50:12;;;;;;;;;;;;;;;;;;6354639;28;19932;-77
2023/08/26 02:53:14;;;;;;;;;;;;;;;;;;6352992;28;19928;-78
2023/08/26 02:56:15;;;;;;;;;;;;;;;;;;6342878;28;19927;-78
2023/08/26 02:59:16;;;;;;;;;;;;;;;;;;6345436;28;19927;-78
2023/08/26 03:02:19;;;;;;;;;;;;;;;;;;6345349;28;20005;-78
2023/08/26 03:05:20;;;;;;;;;;;;;;;;;;6345520;28;19928;-77
2023/08/26 03:08:21;;;;;;;;;;;;;;;;;;6343969;27;19927;-77
2023/08/26 03:11:23;;;;;;;;;;;;;;;;;;6346014;28;19935;-77
2023/08/26 03:14:24;;;;;;;;;;;;;;;;;;6345900;28;19928;-77
2023/08/26 03:17:25;;;;;;;;;;;;;;;;;;6346571;28;19927;-77
2023/08/26 03:20:26;;;;;;;;;;;;;;;;;;6345642;28;19927;-77
2023/08/26 03:23:28;;;;;;;;;;;;;;;;;;6347322;28;19959;-77
2023/08/26 03:26:29;;;;;;;;;;;;;;;;;;6345522;28;19920;-77
2023/08/26 03:29:30;;;;;;;;;;;;;;;;;;6345633;28;19931;-77
2023/08/26 03:32:31;;;;;;;;;;;;;;;;;;6345963;28;20208;-77
2023/08/26 03:35:33;;;;;;;;;;;;;;;;;;6347659;27;20203;-77
2023/08/26 03:38:34;;;;;;;;;;;;;;;;;;6343942;28;19985;-77
2023/08/26 03:41:35;;;;;;;;;;;;;;;;;;6346125;28;19919;-77
2023/08/26 03:44:36;;;;;;;;;;;;;;;;;;6347088;28;19920;-77
2023/08/26 03:47:38;;;;;;;;;;;;;;;;;;6347936;28;19938;-77
2023/08/26 03:50:39;;;;;;;;;;;;;;;;;;6348564;28;19919;-77
2023/08/26 03:53:40;;;;;;;;;;;;;;;;;;6347488;27;19920;-78
2023/08/26 03:56:41;;;;;;;;;;;;;;;;;;6346983;28;19920;-78
2023/08/26 03:59:43;;;;;;;;;;;;;;;;;;6346721;28;19928;-77
2023/08/26 04:02:45;;;;;;;;;;;;;;;;;;6344567;28;19927;-77
2023/08/26 04:05:46;;;;;;;;;;;;;;;;;;6344348;28;19965;-77
2023/08/26 04:08:47;;;;;;;;;;;;;;;;;;6345737;28;19920;-77
2023/08/26 04:11:48;;;;;;;;;;;;;;;;;;6343482;28;19969;-77
2023/08/26 04:14:50;;;;;;;;;;;;;;;;;;6343712;28;19928;-77
2023/08/26 04:17:51;;;;;;;;;;;;;;;;;;6344642;28;20192;-77
2023/08/26 04:20:52;;;;;;;;;;;;;;;;;;6346181;28;19932;-77
2023/08/26 04:23:53;;;;;;;;;;;;;;;;;;6346288;28;19928;-77
2023/08/26 04:26:54;;;;;;;;;;;;;;;;;;6343558;28;20154;-77
2023/08/26 04:29:56;;;;;;;;;;;;;;;;;;6345259;27;19935;-77
2023/08/26 04:32:57;;;;;;;;;;;;;;;;;;6343292;28;20159;-77
2023/08/26 04:35:58;;;;;;;;;;;;;;;;;;6345385;28;19974;-78
2023/08/26 04:38:59;;;;;;;;;;;;;;;;;;6346261;28;19966;-77
2023/08/26 04:42:00;;;;;;;;;;;;;;;;;;6345840;28;19932;-77
2023/08/26 04:45:03;;;;;;;;;;;;;;;;;;6345711;28;19960;-77
2023/08/26 04:48:04;;;;;;;;;;;;;;;;;;6345264;28;19994;-77
2023/08/26 04:51:05;;;;;;;;;;;;;;;;;;6346851;28;19920;-77
2023/08/26 04:54:07;;;;;;;;;;;;;;;;;;6347426;28;19970;-77
2023/08/26 04:57:08;;;;;;;;;;;;;;;;;;6343242;28;19934;-77
2023/08/26 05:00:10;;;;;;;;;;;;;;;;;;6345137;28;19950;-77
2023/08/26 05:03:11;;;;;;;;;;;;;;;;;;6344348;28;19927;-77
2023/08/26 05:06:13;;;;;;;;;;;;;;;;;;6344281;28;19950;-77
2023/08/26 05:09:14;;;;;;;;;;;;;;;;;;6342806;28;20151;-77
2023/08/26 05:12:15;;;;;;;;;;;;;;;;;;6343758;28;19920;-77
2023/08/26 05:15:17;;;;;;;;;;;;;;;;;;6344185;28;20220;-76
2023/08/26 05:18:18;;;;;;;;;;;;;;;;;;6344495;28;19936;-77
2023/08/26 05:21:20;;;;;;;;;;;;;;;;;;6346435;28;19928;-77
2023/08/26 05:24:21;;;;;;;;;;;;;;;;;;6341454;28;20275;-77
2023/08/26 05:27:23;;;;;;;;;;;;;;;;;;6342678;28;19980;-77
2023/08/26 05:30:24;;;;;;;;;;;;;;;;;;6348703;28;19926;-77
2023/08/26 05:33:26;;;;;;;;;;;;;;;;;;6349753;28;19919;-77
2023/08/26 05:36:27;;;;;;;;;;;;;;;;;;6346168;28;19969;-77
2023/08/26 05:39:28;;;;;;;;;;;;;;;;;;6347701;28;19932;-77
2023/08/26 05:42:30;;;;;;;;;;;;;;;;;;6346075;28;19928;-77
2023/08/26 05:45:31;;;;;;;;;;;;;;;;;;6351602;27;20092;-77
2023/08/26 05:48:32;;;;;;;;;;;;;;;;;;6347732;28;20115;-77
2023/08/26 05:51:34;;;;;;;;;;;;;;;;;;6349085;28;20222;-77
2023/08/26 05:54:35;;;;;;;;;;;;;;;;;;6352514;27;19928;-77
2023/08/26 05:57:36;;;;;;;;;;;;;;;;;;6348232;27;19928;-77
2023/08/26 06:00:37;;;;;;;;;;;;;;;;;;6348850;27;19943;-77
2023/08/26 06:03:38;;;;;;;;;;;;;;;;;;6345408;28;19927;-77
2023/08/26 06:06:40;;;;;;;;;;;;;;;;;;6348849;27;19935;-77
2023/08/26 06:09:41;;;;;;;;;;;;;;;;;;6350417;28;19920;-76
2023/08/26 06:12:42;;;;;;;;;;;;;;;;;;6351110;28;19919;-78
2023/08/26 06:15:43;;;;;;;;;;;;;;;;;;6348187;28;20202;-77
2023/08/26 06:18:44;;;;;;;;;;;;;;;;;;6346517;27;19980;-77
2023/08/26 06:21:46;;;;;;;;;;;;;;;;;;6348042;28;19927;-77
2023/08/26 06:24:47;;;;;;;;;;;;;;;;;;6344650;28;20008;-77
2023/08/26 06:27:48;;;;;;;;;;;;;;;;;;6346824;27;19928;-77
2023/08/26 06:30:49;;;;;;;;;;;;;;;;;;6348319;28;19931;-77
2023/08/26 06:33:50;;;;;;;;;;;;;;;;;;6349868;28;19935;-77
2023/08/26 06:36:52;;;;;;;;;;;;;;;;;;6347802;27;19923;-77
2023/08/26 06:39:53;;;;;;;;;;;;;;;;;;6347822;28;19928;-77
2023/08/26 06:42:54;;;;;;;;;;;;;;;;;;6346572;28;19920;-77
2023/08/26 06:45:55;;;;;;;;;;;;;;;;;;6348787;28;20177;-77
2023/08/26 06:48:58;;;;;;;;;;;;;;;;;;6346550;27;19927;-77
2023/08/26 06:52:00;;;;;;;;;;;;;;;;;;6349110;27;19966;-77
2023/08/26 06:55:01;;;;;;;;;;;;;;;;;;6348605;27;20411;-77
2023/08/26 06:58:02;;;;;;;;;;;;;;;;;;6347838;28;20175;-77
2023/08/26 07:01:03;;;;;;;;;;;;;;;;;;6346463;28;19935;-77
2023/08/26 07:04:05;;;;;;;;;;;;;;;;;;6345123;28;19935;-77
2023/08/26 07:07:06;;;;;;;;;;;;;;;;;;6348320;28;19920;-77
2023/08/26 07:10:07;;;;;;;;;;;;;;;;;;6346835;28;19919;-77
2023/08/26 07:13:08;;;;;;;;;;;;;;;;;;6347153;28;19933;-77
2023/08/26 07:16:10;;;;;;;;;;;;;;;;;;6346792;28;19924;-77
2023/08/26 07:19:11;;;;;;;;;;;;;;;;;;6347512;28;19928;-77
2023/08/26 07:22:12;;;;;;;;;;;;;;;;;;6348615;28;19928;-77
2023/08/26 07:25:13;;;;;;;;;;;;;;;;;;6346147;28;20161;-77
2023/08/26 07:28:15;;;;;;;;;;;;;;;;;;6346023;28;20206;-77
2023/08/26 07:31:16;;;;;;;;;;;;;;;;;;6344960;28;19928;-77
2023/08/26 07:34:17;;;;;;;;;;;;;;;;;;6342321;28;19934;-77
2023/08/26 07:37:18;;;;;;;;;;;;;;;;;;6344000;28;19928;-77
2023/08/26 07:40:20;;;;;;;;;;;;;;;;;;6345378;28;20212;-77
2023/08/26 07:43:21;;;;;;;;;;;;;;;;;;6344437;28;19920;-77
2023/08/26 07:46:23;;;;;;;;;;;;;;;;;;6346498;28;19942;-77
2023/08/26 07:49:24;;;;;;;;;;;;;;;;;;6346748;28;20010;-77
2023/08/26 07:52:25;;;;;;;;;;;;;;;;;;6345678;28;19920;-77
2023/08/26 07:55:26;;;;;;;;;;;;;;;;;;6346300;28;19935;-77
2023/08/26 07:58:28;;;;;;;;;;;;;;;;;;6345491;28;19928;-77
2023/08/26 08:01:29;;;;;;;;;;;;;;;;;;6347802;28;19934;-77
2023/08/26 08:04:30;;;;;;;;;;;;;;;;;;6343095;28;19920;-77
2023/08/26 08:07:31;;;;;;;;;;;;;;;;;;6346794;27;19957;-77
2023/08/26 08:10:32;;;;;;;;;;;;;;;;;;6344399;28;19920;-77
2023/08/26 08:13:34;;;;;;;;;;;;;;;;;;6342055;28;20151;-77
2023/08/26 08:16:35;;;;;;;;;;;;;;;;;;6343242;28;19920;-77
2023/08/26 08:19:36;;;;;;;;;;;;;;;;;;6344900;28;19935;-78
2023/08/26 08:22:38;;;;;;;;;;;;;;;;;;6344451;28;20212;-77
2023/08/26 08:25:40;;;;;;;;;;;;;;;;;;6342889;28;19930;-77
2023/08/26 08:28:41;;;;;;;;;;;;;;;;;;6347506;28;20209;-78
2023/08/26 08:31:42;;;;;;;;;;;;;;;;;;6345999;28;20196;-77
2023/08/26 08:34:43;;;;;;;;;;;;;;;;;;6342775;28;20027;-77
2023/08/26 08:37:44;;;;;;;;;;;;;;;;;;6347082;28;19928;-77
2023/08/26 08:40:46;;;;;;;;;;;;;;;;;;6344569;28;19969;-77
2023/08/26 08:43:47;;;;;;;;;;;;;;;;;;6347199;28;20193;-77
2023/08/26 08:46:48;;;;;;;;;;;;;;;;;;6345725;28;19932;-77
2023/08/26 08:49:50;;;;;;;;;;;;;;;;;;6343695;28;20154;-78
2023/08/26 08:52:51;;;;;;;;;;;;;;;;;;6345172;28;20200;-78
2023/08/26 08:55:52;;;;;;;;;;;;;;;;;;6343370;28;19927;-78
2023/08/26 08:58:55;;;;;;;;;;;;;;;;;;6342421;28;19928;-77
2023/08/26 09:01:57;;;;;;;;;;;;;;;;;;6343590;28;20220;-77
2023/08/26 09:04:58;;;;;;;;;;;;;;;;;;6342690;28;19935;-77
2023/08/26 09:07:59;;;;;;;;;;;;;;;;;;6345348;28;20163;-77
2023/08/26 09:11:00;;;;;;;;;;;;;;;;;;6343880;28;19928;-78
2023/08/26 09:14:01;;;;;;;;;;;;;;;;;;6344407;28;20146;-77
2023/08/26 09:17:03;;;;;;;;;;;;;;;;;;6341452;28;19932;-77
2023/08/26 09:20:05;;;;;;;;;;;;;;;;;;6342421;28;19935;-77
2023/08/26 09:23:07;;;;;;;;;;;;;;;;;;6343028;28;21126;-77
2023/08/26 09:26:09;;;;;;;;;;;;;;;;;;6341786;28;19928;-77
2023/08/26 09:29:10;;;;;;;;;;;;;;;;;;6347855;28;21054;-77
2023/08/26 09:32:11;;;;;;;;;;;;;;;;;;6342912;28;19928;-76
2023/08/26 09:35:12;;;;;;;;;;;;;;;;;;6343857;28;19927;-76
2023/08/26 09:38:13;;;;;;;;;;;;;;;;;;6343642;28;19940;-76
2023/08/26 09:41:19;;;;;;;;;;;;;;;;;;6342715;28;19973;-77
2023/08/26 09:44:21;;;;;;;;;;;;;;;;;;6345705;28;20254;-76
2023/08/26 09:47:22;;;;;;;;;;;;;;;;;;6344519;28;19982;-76
2023/08/26 09:50:23;;;;;;;;;;;;;;;;;;6344888;28;19983;-76
2023/08/26 09:53:24;;;;;;;;;;;;;;;;;;6349807;28;19927;-76
2023/08/26 09:56:26;;;;;;;;;;;;;;;;;;6343603;28;20113;-77
2023/08/26 09:59:27;;;;;;;;;;;;;;;;;;6344571;28;19928;-78
2023/08/26 10:02:28;;;;;;;;;;;;;;;;;;6343844;28;19927;-78
2023/08/26 10:05:29;;;;;;;;;;;;;;;;;;6342747;28;19932;-78
2023/08/26 10:08:30;;;;;;;;;;;;;;;;;;6343312;28;20209;-78
2023/08/26 10:11:32;;;;;;;;;;;;;;;;;;6345069;28;19935;-78
2023/08/26 10:14:33;;;;;;;;;;;;;;;;;;6343016;28;20338;-78
2023/08/26 10:17:34;;;;;;;;;;;;;;;;;;6350067;28;19928;-78
2023/08/26 10:20:35;;;;;;;;;;;;;;;;;;6347825;28;19935;-78
2023/08/26 10:23:36;;;;;;;;;;;;;;;;;;6348374;28;19969;-78
2023/08/26 10:26:38;;;;;;;;;;;;;;;;;;6345795;28;19920;-77
2023/08/26 10:29:39;;;;;;;;;;;;;;;;;;6345239;28;19928;-77
2023/08/26 10:32:42;;;;;;;;;;;;;;;;;;6347042;28;20705;-77
2023/08/26 10:35:44;;;;;;;;;;;;;;;;;;6347041;28;19932;-77
2023/08/26 10:38:45;;;;;;;;;;;;;;;;;;6347688;28;19919;-77
2023/08/26 10:41:46;;;;;;;;;;;;;;;;;;6347891;28;19970;-77
2023/08/26 10:44:47;;;;;;;;;;;;;;;;;;6349290;28;19934;-76
2023/08/26 10:47:49;;;;;;;;;;;;;;;;;;6347064;28;20009;-78
2023/08/26 10:50:52;;;;;;;;;;;;;;;;;;6348004;28;19936;-77
2023/08/26 10:53:53;;;;;;;;;;;;;;;;;;6350019;28;20177;-78
2023/08/26 10:56:54;;;;;;;;;;;;;;;;;;6345353;28;19920;-77
2023/08/26 10:59:55;;;;;;;;;;;;;;;;;;6348878;27;20228;-77
2023/08/26 11:02:57;;;;;;;;;;;;;;;;;;6347601;28;19966;-77
2023/08/26 11:05:58;;;;;;;;;;;;;;;;;;6345731;28;19932;-78
2023/08/26 11:08:59;;;;;;;;;;;;;;;;;;6346482;28;19928;-77
2023/08/26 11:12:01;;;;;;;;;;;;;;;;;;6346878;28;19989;-78
2023/08/26 11:15:02;;;;;;;;;;;;;;;;;;6346871;28;20138;-76
2023/08/26 11:18:03;;;;;;;;;;;;;;;;;;6346654;28;19967;-76
2023/08/26 11:21:04;;;;;;;;;;;;;;;;;;6348859;28;19928;-78
2023/08/26 11:24:06;;;;;;;;;;;;;;;;;;6345932;28;19974;-77
2023/08/26 11:27:07;;;;;;;;;;;;;;;;;;6346893;28;20181;-78
2023/08/26 11:30:09;;;;;;;;;;;;;;;;;;6345606;28;20136;-78
2023/08/26 11:33:10;;;;;;;;;;;;;;;;;;6344382;28;19928;-78
2023/08/26 11:36:11;;;;;;;;;;;;;;;;;;6346722;28;19928;-78
2023/08/26 11:39:13;;;;;;;;;;;;;;;;;;6344300;28;20108;-78
2023/08/26 11:42:14;;;;;;;;;;;;;;;;;;6345082;28;19919;-78
2023/08/26 11:45:15;;;;;;;;;;;;;;;;;;6348901;28;19919;-78
2023/08/26 11:48:16;;;;;;;;;;;;;;;;;;6344713;28;19928;-79
2023/08/26 11:51:17;;;;;;;;;;;;;;;;;;6347913;28;19935;-76
2023/08/26 11:54:19;;;;;;;;;;;;;;;;;;6348523;27;19926;-79
2023/08/26 11:57:20;;;;;;;;;;;;;;;;;;6346052;28;19919;-79
2023/08/26 12:00:21;;;;;;;;;;;;;;;;;;6344780;28;20104;-78
2023/08/26 12:03:23;;;;;;;;;;;;;;;;;;6343210;28;19920;-77
2023/08/26 12:06:24;;;;;;;;;;;;;;;;;;6343670;28;19920;-78
2023/08/26 12:09:26;;;;;;;;;;;;;;;;;;6346453;28;19995;-76
2023/08/26 12:12:27;;;;;;;;;;;;;;;;;;6344924;28;20010;-77
2023/08/26 12:15:29;;;;;;;;;;;;;;;;;;6344635;28;20293;-75
2023/08/26 12:18:30;;;;;;;;;;;;;;;;;;6344075;28;19950;-78
2023/08/26 12:21:31;;;;;;;;;;;;;;;;;;6348733;28;19928;-77
2023/08/26 12:24:32;;;;;;;;;;;;;;;;;;6343947;28;19935;-78
2023/08/26 12:27:34;;;;;;;;;;;;;;;;;;6343786;28;19928;-78
2023/08/26 12:30:37;;;;;;;;;;;;;;;;;;6346464;28;20193;-78
2023/08/26 12:33:38;;;;;;;;;;;;;;;;;;6343836;28;19928;-77
2023/08/26 12:36:39;;;;;;;;;;;;;;;;;;6343276;28;19927;-78
2023/08/26 12:39:41;;;;;;;;;;;;;;;;;;6346565;28;19927;-78
2023/08/26 12:42:42;;;;;;;;;;;;;;;;;;6342637;28;19932;-77
2023/08/26 12:45:43;;;;;;;;;;;;;;;;;;6348483;28;20216;-77
2023/08/26 12:48:44;;;;;;;;;;;;;;;;;;6344529;27;19928;-78
2023/08/26 12:51:46;;;;;;;;;;;;;;;;;;6347452;28;19938;-78
2023/08/26 12:54:47;;;;;;;;;;;;;;;;;;6348069;28;19919;-78
2023/08/26 12:57:48;;;;;;;;;;;;;;;;;;6346529;28;19985;-78
2023/08/26 13:00:49;;;;;;;;;;;;;;;;;;6344795;28;19928;-78
2023/08/26 13:03:51;;;;;;;;;;;;;;;;;;6346395;28;19928;-78
2023/08/26 13:06:52;;;;;;;;;;;;;;;;;;6343895;28;19920;-77
2023/08/26 13:09:53;;;;;;;;;;;;;;;;;;6344152;28;20112;-78
2023/08/26 13:12:54;;;;;;;;;;;;;;;;;;6342899;28;19942;-76
2023/08/26 13:15:56;;;;;;;;;;;;;;;;;;6346019;28;19934;-77
2023/08/26 13:18:57;;;;;;;;;;;;;;;;;;6342918;28;20296;-78
2023/08/26 13:21:58;;;;;;;;;;;;;;;;;;6348726;28;19924;-78
2023/08/26 13:24:59;;;;;;;;;;;;;;;;;;6352643;28;19928;-79
2023/08/26 13:28:01;;;;;;;;;;;;;;;;;;6351449;28;19942;-79
2023/08/26 13:31:02;;;;;;;;;;;;;;;;;;6350621;28;20366;-79
2023/08/26 13:34:03;;;;;;;;;;;;;;;;;;6353483;28;19999;-78
2023/08/26 13:37:04;;;;;;;;;;;;;;;;;;6346739;28;19928;-77
2023/08/26 13:40:06;;;;;;;;;;;;;;;;;;6341081;28;20264;-77
2023/08/26 13:43:07;;;;;;;;;;;;;;;;;;6344616;28;20231;-77
2023/08/26 13:46:08;;;;;;;;;;;;;;;;;;6344156;28;19920;-79
2023/08/26 13:49:09;;;;;;;;;;;;;;;;;;6345561;28;19920;-78
2023/08/26 13:52:11;;;;;;;;;;;;;;;;;;6349385;28;19947;-79
2023/08/26 13:55:13;;;;;;;;;;;;;;;;;;6349720;28;20241;-78
2023/08/26 13:58:21;;;;;;;;;;;;;;;;;;6348849;28;19927;-78
2023/08/26 14:01:22;;;;;;;;;;;;;;;;;;6348782;28;20108;-78
2023/08/26 14:04:24;;;;;;;;;;;;;;;;;;6349104;28;19927;-78
2023/08/26 14:07:25;;;;;;;;;;;;;;;;;;6346226;28;19920;-78
2023/08/26 14:10:26;;;;;;;;;;;;;;;;;;6347174;28;19919;-78
2023/08/26 14:13:27;;;;;;;;;;;;;;;;;;6349232;28;19927;-79
2023/08/26 14:16:29;;;;;;;;;;;;;;;;;;6348989;28;19928;-80
2023/08/26 14:19:31;;;;;;;;;;;;;;;;;;6348512;28;19927;-79
2023/08/26 14:22:32;;;;;;;;;;;;;;;;;;6349441;28;19928;-79
2023/08/26 14:25:33;;;;;;;;;;;;;;;;;;6347171;28;19928;-78
2023/08/26 14:28:34;;;;;;;;;;;;;;;;;;6347948;28;19927;-80
2023/08/26 14:31:36;;;;;;;;;;;;;;;;;;6343938;28;20738;-80
2023/08/26 14:34:37;;;;;;;;;;;;;;;;;;6345977;28;19997;-82
2023/08/26 14:37:38;;;;;;;;;;;;;;;;;;6345281;28;19928;-78
2023/08/26 14:40:39;;;;;;;;;;;;;;;;;;6346640;28;19932;-78
2023/08/26 14:43:42;;;;;;;;;;;;;;;;;;6351902;28;19928;-77
2023/08/26 14:46:43;;;;;;;;;;;;;;;;;;6347148;28;19934;-78
2023/08/26 14:49:44;;;;;;;;;;;;;;;;;;6351218;28;19927;-78
2023/08/26 14:52:46;;;;;;;;;;;;;;;;;;6349134;28;19920;-78
2023/08/26 14:55:47;;;;;;;;;;;;;;;;;;6345314;28;19926;-78
2023/08/26 14:58:48;;;;;;;;;;;;;;;;;;6336064;28;20208;-78
2023/08/26 15:01:50;;;;;;;;;;;;;;;;;;6345228;28;20181;-78
2023/08/26 15:04:51;;;;;;;;;;;;;;;;;;6346918;28;20124;-78
2023/08/26 15:07:52;;;;;;;;;;;;;;;;;;6346114;28;19928;-78
2023/08/26 15:10:53;;;;;;;;;;;;;;;;;;6343173;28;19920;-77
2023/08/26 15:13:54;;;;;;;;;;;;;;;;;;6345009;28;20207;-78
2023/08/26 15:16:56;;;;;;;;;;;;;;;;;;6347267;28;19935;-77
2023/08/26 15:19:59;;;;;;;;;;;;;;;;;;6345350;28;19928;-77
2023/08/26 15:23:00;;;;;;;;;;;;;;;;;;6345710;28;19951;-77
2023/08/26 15:26:02;;;;;;;;;;;;;;;;;;6346711;28;19934;-77
2023/08/26 15:29:03;;;;;;;;;;;;;;;;;;6349506;28;20224;-77
2023/08/26 15:32:04;;;;;;;;;;;;;;;;;;6343633;28;19927;-77
2023/08/26 15:35:06;;;;;;;;;;;;;;;;;;6345368;28;19935;-76
2023/08/26 15:38:07;;;;;;;;;;;;;;;;;;6344406;28;19950;-77
2023/08/26 15:41:08;;;;;;;;;;;;;;;;;;6345597;28;19927;-76
2023/08/26 15:44:09;;;;;;;;;;;;;;;;;;6349990;28;20147;-76
2023/08/26 15:47:10;;;;;;;;;;;;;;;;;;6347671;28;19927;-77
2023/08/26 15:50:12;;;;;;;;;;;;;;;;;;6346858;28;19928;-76
2023/08/26 15:53:13;;;;;;;;;;;;;;;;;;6346800;28;19928;-76
2023/08/26 15:56:14;;;;;;;;;;;;;;;;;;6346876;28;20052;-77
2023/08/26 15:59:16;;;;;;;;;;;;;;;;;;6347218;28;19959;-77
2023/08/26 16:02:17;;;;;;;;;;;;;;;;;;6344021;28;19928;-77
2023/08/26 16:05:18;;;;;;;;;;;;;;;;;;6342798;28;20112;-77
2023/08/26 16:08:19;;;;;;;;;;;;;;;;;;6345587;28;19928;-77
2023/08/26 16:11:23;;;;;;;;;;;;;;;;;;6346280;28;19920;-77
2023/08/26 16:14:24;;;;;;;;;;;;;;;;;;6344102;28;19920;-77
2023/08/26 16:17:26;;;;;;;;;;;;;;;;;;6344288;28;19932;-77
2023/08/26 16:20:27;;;;;;;;;;;;;;;;;;6344977;28;19932;-79
2023/08/26 16:23:28;;;;;;;;;;;;;;;;;;6345883;28;20231;-79
2023/08/26 16:26:29;;;;;;;;;;;;;;;;;;6342762;28;19927;-76
2023/08/26 16:29:31;;;;;;;;;;;;;;;;;;6346574;28;20377;-79
2023/08/26 16:32:32;;;;;;;;;;;;;;;;;;6345449;28;19934;-79
2023/08/26 16:35:34;;;;;;;;;;;;;;;;;;6345756;28;19951;-78
2023/08/26 16:38:35;;;;;;;;;;;;;;;;;;6340775;28;19927;-77
2023/08/26 16:41:36;;;;;;;;;;;;;;;;;;6346174;28;19936;-77
2023/08/26 16:44:37;;;;;;;;;;;;;;;;;;6345984;28;20021;-77
2023/08/26 16:47:38;;;;;;;;;;;;;;;;;;6344781;28;19931;-77
2023/08/26 16:50:40;;;;;;;;;;;;;;;;;;6346058;28;19928;-77
2023/08/26 16:53:41;;;;;;;;;;;;;;;;;;6347770;28;19926;-77
2023/08/26 16:56:42;;;;;;;;;;;;;;;;;;6343524;28;19957;-77
2023/08/26 16:59:43;;;;;;;;;;;;;;;;;;6344621;28;19938;-77
2023/08/26 17:02:44;;;;;;;;;;;;;;;;;;6344041;28;20134;-76
2023/08/26 17:05:46;;;;;;;;;;;;;;;;;;6343758;28;19951;-77
2023/08/26 17:08:47;;;;;;;;;;;;;;;;;;6345039;28;19965;-77
2023/08/26 17:11:48;;;;;;;;;;;;;;;;;;6345921;28;19928;-77
2023/08/26 17:14:49;;;;;;;;;;;;;;;;;;6343725;28;19928;-77
2023/08/26 17:17:51;;;;;;;;;;;;;;;;;;6343898;28;19932;-77
2023/08/26 17:20:52;;;;;;;;;;;;;;;;;;6343569;28;19986;-77
2023/08/26 17:23:53;;;;;;;;;;;;;;;;;;6346785;28;19940;-77
2023/08/26 17:26:54;;;;;;;;;;;;;;;;;;6351550;28;19999;-77
2023/08/26 17:29:55;;;;;;;;;;;;;;;;;;6355252;28;19932;-77
2023/08/26 17:32:57;;;;;;;;;;;;;;;;;;6351683;28;20293;-77
2023/08/26 17:35:58;;;;;;;;;;;;;;;;;;6351793;28;20231;-77
2023/08/26 17:38:59;;;;;;;;;;;;;;;;;;6350469;28;19920;-79
2023/08/26 17:42:03;;;;;;;;;;;;;;;;;;6352734;28;20283;-80
2023/08/26 17:45:04;;;;;;;;;;;;;;;;;;6355836;28;19932;-77
2023/08/26 17:48:05;;;;;;;;;;;;;;;;;;6349626;28;19927;-78
2023/08/26 17:51:06;;;;;;;;;;;;;;;;;;6355432;28;19935;-77
2023/08/26 17:54:08;;;;;;;;;;;;;;;;;;6354211;28;19957;-77
2023/08/26 17:57:09;;;;;;;;;;;;;;;;;;6350898;28;19935;-77
2023/08/26 18:00:10;;;;;;;;;;;;;;;;;;6351434;28;19931;-78
2023/08/26 18:03:11;;;;;;;;;;;;;;;;;;6350375;28;19928;-77
2023/08/26 18:06:12;;;;;;;;;;;;;;;;;;6352081;28;20165;-78
2023/08/26 18:09:14;;;;;;;;;;;;;;;;;;6352723;28;19920;-77
2023/08/26 18:12:15;;;;;;;;;;;;;;;;;;6351670;28;19935;-77
2023/08/26 18:15:16;;;;;;;;;;;;;;;;;;6350843;28;19949;-77
2023/08/26 18:18:17;;;;;;;;;;;;;;;;;;6354328;28;19920;-77
2023/08/26 18:21:18;;;;;;;;;;;;;;;;;;6353141;28;20010;-77
2023/08/26 18:24:20;;;;;;;;;;;;;;;;;;6352250;28;19934;-77
2023/08/26 18:27:21;;;;;;;;;;;;;;;;;;6351270;28;19932;-77
2023/08/26 18:30:22;;;;;;;;;;;;;;;;;;6355229;28;22257;-80
2023/08/26 18:33:24;;;;;;;;;;;;;;;;;;6351145;28;20204;-78
2023/08/26 18:36:25;;;;;;;;;;;;;;;;;;6348340;28;19923;-77
2023/08/26 18:39:27;;;;;;;;;;;;;;;;;;6346484;28;19926;-77
2023/08/26 18:42:28;;;;;;;;;;;;;;;;;;6349178;28;19928;-77
2023/08/26 18:45:29;;;;;;;;;;;;;;;;;;6348264;28;19920;-79
2023/08/26 18:48:30;;;;;;;;;;;;;;;;;;6346882;28;19942;-77
2023/08/26 18:51:31;;;;;;;;;;;;;;;;;;6350868;28;20089;-77
2023/08/26 18:54:33;;;;;;;;;;;;;;;;;;6348391;28;19928;-77
2023/08/26 18:57:34;;;;;;;;;;;;;;;;;;6345557;28;20097;-79
2023/08/26 19:00:35;;;;;;;;;;;;;;;;;;6347046;28;19958;-78
2023/08/26 19:03:36;;;;;;;;;;;;;;;;;;6347698;28;19928;-77
2023/08/26 19:06:38;;;;;;;;;;;;;;;;;;6346222;28;20015;-78
2023/08/26 19:09:39;;;;;;;;;;;;;;;;;;6346777;28;20183;-77
2023/08/26 19:12:40;;;;;;;;;;;;;;;;;;6349014;28;19949;-78
2023/08/26 19:15:41;;;;;;;;;;;;;;;;;;6349721;28;19958;-78
2023/08/26 19:18:43;;;;;;;;;;;;;;;;;;6346494;28;19932;-78
2023/08/26 19:21:44;;;;;;;;;;;;;;;;;;6347219;28;20200;-78
2023/08/26 19:24:45;;;;;;;;;;;;;;;;;;6345664;28;19928;-78
2023/08/26 19:27:47;;;;;;;;;;;;;;;;;;6346755;28;19991;-78
2023/08/26 19:30:48;;;;;;;;;;;;;;;;;;6349473;28;19927;-78
2023/08/26 19:33:50;;;;;;;;;;;;;;;;;;6347112;28;19955;-78
2023/08/26 19:36:51;;;;;;;;;;;;;;;;;;6346574;28;19957;-78
2023/08/26 19:39:53;;;;;;;;;;;;;;;;;;6345574;28;19931;-78
2023/08/26 19:42:54;;;;;;;;;;;;;;;;;;6343795;28;19928;-78
2023/08/26 19:45:55;;;;;;;;;;;;;;;;;;6349959;28;20089;-78
2023/08/26 19:48:57;;;;;;;;;;;;;;;;;;6348154;28;19919;-78
2023/08/26 19:51:58;;;;;;;;;;;;;;;;;;6345954;28;19919;-78
2023/08/26 19:54:59;;;;;;;;;;;;;;;;;;6347296;28;20211;-78
2023/08/26 19:58:00;;;;;;;;;;;;;;;;;;6347326;28;19931;-78
2023/08/26 20:01:02;;;;;;;;;;;;;;;;;;6343980;28;19983;-78
2023/08/26 20:04:03;;;;;;;;;;;;;;;;;;6345506;28;20458;-79
2023/08/26 20:07:04;;;;;;;;;;;;;;;;;;6344217;28;19935;-78
2023/08/26 20:10:05;;;;;;;;;;;;;;;;;;6346020;28;20276;-78
2023/08/26 20:13:06;;;;;;;;;;;;;;;;;;6347187;28;19927;-78
2023/08/26 20:16:08;;;;;;;;;;;;;;;;;;6343829;28;19928;-78
2023/08/26 20:19:09;;;;;;;;;;;;;;;;;;6344504;28;19935;-77
2023/08/26 20:22:10;;;;;;;;;;;;;;;;;;6345358;28;20262;-77
2023/08/26 20:25:12;;;;;;;;;;;;;;;;;;6347933;28;20208;-77
2023/08/26 20:28:13;;;;;;;;;;;;;;;;;;6342990;28;19927;-77
2023/08/26 20:31:15;;;;;;;;;;;;;;;;;;6346482;28;19924;-77
2023/08/26 20:34:16;;;;;;;;;;;;;;;;;;6344143;28;20192;-77
2023/08/26 20:37:17;;;;;;;;;;;;;;;;;;6315675;28;20197;-77